createdAt,value
2019-05-06T00:01:56.318Z,96545.23
2019-05-06T00:04:26.911Z,96540.00
2019-05-06T00:06:57.308Z,96545.53
2019-05-06T00:09:27.683Z,96543.84
2019-05-06T00:11:58.135Z,96544.11
2019-05-06T00:14:28.486Z,96530.94
2019-05-06T00:16:59.008Z,96536.29
2019-05-06T00:19:29.598Z,96533.35
2019-05-06T00:22:00.149Z,96534.92
2019-05-06T00:24:35.954Z,96541.75
2019-05-06T00:27:18.187Z,96538.16
2019-05-06T00:29:49.213Z,96542.05
2019-05-06T00:32:19.729Z,96536.86
2019-05-06T00:34:50.232Z,96538.08
2019-05-06T00:37:20.734Z,96542.66
2019-05-06T00:40:00.329Z,96541.97
2019-05-06T00:42:34.388Z,96539.72
2019-05-06T00:45:05.487Z,96537.81
2019-05-06T00:47:35.865Z,96531.69
2019-05-06T00:50:09.029Z,96542.83
2019-05-06T00:52:41.635Z,96541.41
2019-05-06T00:55:13.699Z,96540.06
2019-05-06T00:57:44.493Z,96537.12
2019-05-06T01:00:24.390Z,96546.55
2019-05-06T01:02:57.785Z,96539.08
2019-05-06T01:05:28.305Z,96545.34
2019-05-06T01:07:59.057Z,96539.28
2019-05-06T01:10:34.423Z,96543.43
2019-05-06T01:13:26.444Z,96546.55
2019-05-06T01:15:57.050Z,96549.83
2019-05-06T01:18:27.590Z,96552.77
2019-05-06T01:21:10.366Z,96555.67
2019-05-06T01:23:45.303Z,96554.79
2019-05-06T01:26:17.036Z,96561.59
2019-05-06T01:28:47.583Z,96555.79
2019-05-06T01:31:18.272Z,96558.38
2019-05-06T01:33:48.652Z,96560.02
2019-05-06T01:36:19.078Z,96557.08
2019-05-06T01:38:57.526Z,96559.06
2019-05-06T01:41:49.590Z,96563.82
2019-05-06T01:44:20.466Z,96563.61
2019-05-06T01:46:50.924Z,96561.36
2019-05-06T01:49:21.357Z,96567.03
2019-05-06T01:51:51.750Z,96571.09
2019-05-06T01:54:22.149Z,96568.76
2019-05-06T01:56:54.670Z,96572.99
2019-05-06T01:59:25.036Z,96569.58
2019-05-06T02:02:00.793Z,96574.29
2019-05-06T02:04:27.687Z,96581.38
2019-05-06T02:06:57.934Z,96573.81
2019-05-06T02:09:28.361Z,96575.28
2019-05-06T02:11:58.822Z,96573.03
2019-05-06T02:14:29.351Z,96577.27
2019-05-06T02:16:59.698Z,96583.75
2019-05-06T02:19:30.035Z,96582.19
2019-05-06T02:22:13.485Z,96576.36
2019-05-06T02:24:49.976Z,96584.83
2019-05-06T02:27:20.400Z,96584.58
2019-05-06T02:29:56.411Z,96581.84
2019-05-06T02:32:48.161Z,96578.56
2019-05-06T02:35:35.458Z,96579.25
2019-05-06T02:38:07.577Z,96587.95
2019-05-06T02:40:37.990Z,96577.88
2019-05-06T02:43:08.465Z,96590.11
2019-05-06T02:45:38.742Z,96590.38
2019-05-06T02:48:15.057Z,96592.79
2019-05-06T02:51:24.403Z,96590.80
2019-05-06T02:53:54.998Z,96596.61
2019-05-06T02:56:25.484Z,96598.89
2019-05-06T02:58:55.897Z,96600.45
2019-05-06T03:01:26.300Z,96602.17
2019-05-06T03:03:56.687Z,96605.30
2019-05-06T03:06:27.615Z,96607.41
2019-05-06T03:08:58.198Z,96606.67
2019-05-06T03:11:28.522Z,96609.17
2019-05-06T03:13:58.923Z,96612.25
2019-05-06T03:16:29.396Z,96617.30
2019-05-06T03:18:59.803Z,96613.81
2019-05-06T03:21:45.118Z,96613.28
2019-05-06T03:24:49.729Z,96616.30
2019-05-06T03:27:20.158Z,96618.48
2019-05-06T03:29:53.466Z,96621.62
2019-05-06T03:32:29.752Z,96619.42
2019-05-06T03:35:15.825Z,96620.54
2019-05-06T03:37:27.033Z,96616.83
2019-05-06T03:39:57.452Z,96621.49
2019-05-06T03:42:27.895Z,96626.99
2019-05-06T03:45:04.175Z,96627.42
2019-05-06T03:47:54.244Z,96631.09
2019-05-06T03:50:24.227Z,96635.67
2019-05-06T03:52:56.472Z,96633.77
2019-05-06T03:55:27.992Z,96631.92
2019-05-06T03:57:58.387Z,96635.25
2019-05-06T04:00:28.769Z,96639.48
2019-05-06T04:02:59.245Z,96639.27
2019-05-06T04:05:29.700Z,96646.36
2019-05-06T04:08:03.608Z,96640.56
2019-05-06T04:10:33.810Z,96648.34
2019-05-06T04:13:06.775Z,96642.30
2019-05-06T04:16:03.788Z,96640.95
2019-05-06T04:18:36.320Z,96647.95
2019-05-06T04:21:16.746Z,96653.57
2019-05-06T04:23:59.268Z,96653.28
2019-05-06T04:26:48.766Z,96656.27
2019-05-06T04:29:19.288Z,96655.45
2019-05-06T04:31:49.874Z,96654.92
2019-05-06T04:34:23.221Z,96657.64
2019-05-06T04:36:53.532Z,96662.14
2019-05-06T04:39:24.182Z,96655.45
2019-05-06T04:41:55.154Z,96670.45
2019-05-06T04:44:25.569Z,96661.77
2019-05-06T04:46:56.384Z,96664.44
2019-05-06T04:49:26.807Z,96667.64
2019-05-06T04:51:57.112Z,96672.22
2019-05-06T04:54:28.146Z,96676.03
2019-05-06T04:56:58.574Z,96689.41
2019-05-06T04:59:29.443Z,96683.38
2019-05-06T05:02:02.502Z,96678.31
2019-05-06T05:04:36.282Z,96681.30
2019-05-06T05:07:04.332Z,96681.12
2019-05-06T05:09:34.812Z,96686.43
2019-05-06T05:12:13.335Z,96685.86
2019-05-06T05:14:59.969Z,96692.16
2019-05-06T05:17:46.811Z,96698.20
2019-05-06T05:20:17.328Z,96692.38
2019-05-06T05:22:48.227Z,96700.77
2019-05-06T05:25:18.624Z,96693.48
2019-05-06T05:27:49.035Z,96701.14
2019-05-06T05:30:19.628Z,96701.92
2019-05-06T05:32:52.028Z,96697.12
2019-05-06T05:35:22.733Z,96698.48
2019-05-06T05:37:53.753Z,96693.28
2019-05-06T05:40:24.189Z,96693.34
2019-05-06T05:43:04.405Z,96702.78
2019-05-06T05:45:35.073Z,96703.09
2019-05-06T05:48:12.410Z,96703.33
2019-05-06T05:50:43.619Z,96706.47
2019-05-06T05:53:13.993Z,96705.81
2019-05-06T05:55:44.422Z,96717.41
2019-05-06T05:58:14.855Z,96713.56
2019-05-06T06:00:45.584Z,96713.61
2019-05-06T06:03:16.106Z,96714.14
2019-05-06T06:05:46.546Z,96714.34
2019-05-06T06:08:16.959Z,96715.72
2019-05-06T06:11:06.203Z,96715.78
2019-05-06T06:13:36.632Z,96711.89
2019-05-06T06:16:20.599Z,96712.24
2019-05-06T06:19:12.789Z,96723.35
2019-05-06T06:21:47.479Z,96722.36
2019-05-06T06:24:25.396Z,96717.98
2019-05-06T06:26:55.871Z,96713.55
2019-05-06T06:29:26.351Z,96721.41
2019-05-06T06:32:14.794Z,96712.41
2019-05-06T06:35:09.958Z,96716.86
2019-05-06T06:38:05.860Z,96722.08
2019-05-06T06:40:36.361Z,96718.47
2019-05-06T06:43:12.446Z,96720.42
2019-05-06T06:45:42.987Z,96713.52
2019-05-06T06:48:13.487Z,96714.75
2019-05-06T06:50:44.100Z,96713.87
2019-05-06T06:53:14.596Z,96709.72
2019-05-06T06:55:45.024Z,96716.95
2019-05-06T06:58:24.171Z,96713.80
2019-05-06T07:01:33.176Z,96716.92
2019-05-06T07:04:11.153Z,96708.73
2019-05-06T07:06:45.872Z,96714.63
2019-05-06T07:09:16.246Z,96712.80
2019-05-06T07:11:46.702Z,96719.59
2019-05-06T07:14:17.096Z,96722.34
2019-05-06T07:16:47.487Z,96722.40
2019-05-06T07:19:23.000Z,96730.27
2019-05-06T07:21:57.666Z,96722.29
2019-05-06T07:24:28.141Z,96722.39
2019-05-06T07:27:12.557Z,96715.56
2019-05-06T07:29:48.361Z,96721.43
2019-05-06T07:32:14.975Z,96725.84
2019-05-06T07:34:45.438Z,96727.52
2019-05-06T07:37:15.874Z,96722.81
2019-05-06T07:39:46.346Z,96714.69
2019-05-06T07:42:28.440Z,96709.84
2019-05-06T07:45:17.227Z,96718.53
2019-05-06T07:47:53.053Z,96714.88
2019-05-06T07:50:23.368Z,96708.97
2019-05-06T07:53:09.913Z,96701.79
2019-05-06T07:55:42.469Z,96704.94
2019-05-06T07:58:13.750Z,96705.20
2019-05-06T08:00:44.471Z,96709.01
2019-05-06T08:03:14.976Z,96707.63
2019-05-06T08:05:55.187Z,96710.14
2019-05-06T08:08:17.543Z,96709.91
2019-05-06T08:10:47.952Z,96706.30
2019-05-06T08:13:18.435Z,96702.36
2019-05-06T08:15:48.862Z,96687.25
2019-05-06T08:18:19.247Z,96696.42
2019-05-06T08:20:51.868Z,96703.65
2019-05-06T08:23:32.592Z,96695.70
2019-05-06T08:26:12.553Z,96696.14
2019-05-06T08:28:40.980Z,96696.88
2019-05-06T08:31:07.924Z,96706.76
2019-05-06T08:33:38.355Z,96702.09
2019-05-06T08:36:14.855Z,96703.08
2019-05-06T08:38:56.844Z,96705.25
2019-05-06T08:41:28.738Z,96705.48
2019-05-06T08:43:59.189Z,96707.55
2019-05-06T08:46:29.522Z,96705.56
2019-05-06T08:48:59.911Z,96708.79
2019-05-06T08:51:45.426Z,96705.02
2019-05-06T08:54:29.015Z,96701.72
2019-05-06T08:56:59.509Z,96701.95
2019-05-06T08:59:31.921Z,96704.36
2019-05-06T09:02:03.168Z,96697.55
2019-05-06T09:04:33.810Z,96702.25
2019-05-06T09:07:04.198Z,96697.58
2019-05-06T09:09:34.667Z,96700.17
2019-05-06T09:12:05.116Z,96702.05
2019-05-06T09:14:35.564Z,96695.05
2019-05-06T09:17:07.046Z,96705.28
2019-05-06T09:19:37.403Z,96699.41
2019-05-06T09:22:07.848Z,96694.48
2019-05-06T09:24:38.416Z,96698.39
2019-05-06T09:27:20.004Z,96691.02
2019-05-06T09:29:56.426Z,96686.99
2019-05-06T09:32:36.008Z,96690.45
2019-05-06T09:35:07.996Z,96690.59
2019-05-06T09:37:38.423Z,96696.62
2019-05-06T09:40:12.687Z,96699.84
2019-05-06T09:42:43.286Z,96693.73
2019-05-06T09:45:13.911Z,96690.00
2019-05-06T09:48:06.129Z,96698.95
2019-05-06T09:50:46.034Z,96696.80
2019-05-06T09:53:22.954Z,96696.58
2019-05-06T09:56:13.022Z,96695.75
2019-05-06T09:58:44.429Z,96694.50
2019-05-06T10:01:15.976Z,96692.70
2019-05-06T10:03:46.374Z,96696.04
2019-05-06T10:06:16.803Z,96693.81
2019-05-06T10:08:47.142Z,96691.26
2019-05-06T10:11:17.649Z,96690.20
2019-05-06T10:13:48.150Z,96695.34
2019-05-06T10:16:18.640Z,96698.18
2019-05-06T10:18:49.070Z,96691.49
2019-05-06T10:21:19.519Z,96693.63
2019-05-06T10:23:50.098Z,96696.89
2019-05-06T10:26:20.540Z,96704.18
2019-05-06T10:28:57.449Z,96701.98
2019-05-06T10:31:29.553Z,96693.03
2019-05-06T10:34:13.934Z,96697.24
2019-05-06T10:37:18.044Z,96699.09
2019-05-06T10:39:43.449Z,96690.77
2019-05-06T10:42:19.509Z,96692.16
2019-05-06T10:45:27.856Z,96690.46
2019-05-06T10:47:59.043Z,96695.30
2019-05-06T10:50:33.007Z,96690.45
2019-05-06T10:53:23.046Z,96696.64
2019-05-06T10:55:57.908Z,96696.58
2019-05-06T10:58:28.389Z,96692.54
2019-05-06T11:01:12.292Z,96689.89
2019-05-06T11:03:42.154Z,96693.05
2019-05-06T11:06:13.130Z,96688.81
2019-05-06T11:08:43.756Z,96686.37
2019-05-06T11:11:20.039Z,96695.78
2019-05-06T11:13:46.415Z,96696.25
2019-05-06T11:16:17.143Z,96699.73
2019-05-06T11:18:47.629Z,96712.56
2019-05-06T11:21:18.025Z,96697.86
2019-05-06T11:23:48.483Z,96719.09
2019-05-06T11:26:18.953Z,96716.23
2019-05-06T11:28:53.170Z,96712.80
2019-05-06T11:31:46.906Z,96715.11
2019-05-06T11:34:48.355Z,96713.14
2019-05-06T11:37:19.877Z,96713.48
2019-05-06T11:39:52.628Z,96714.28
2019-05-06T11:42:28.918Z,96711.92
2019-05-06T11:44:54.785Z,96717.30
2019-05-06T11:47:25.238Z,96717.55
2019-05-06T11:49:57.471Z,96712.68
2019-05-06T11:52:28.183Z,96713.99
2019-05-06T11:54:58.466Z,96714.36
2019-05-06T11:57:29.014Z,96712.91
2019-05-06T11:59:59.524Z,96720.38
2019-05-06T12:02:29.944Z,96719.41
2019-05-06T12:05:02.343Z,96724.03
2019-05-06T12:07:33.243Z,96719.09
2019-05-06T12:10:03.821Z,96718.41
2019-05-06T12:12:34.249Z,96726.09
2019-05-06T12:15:07.219Z,96727.69
2019-05-06T12:17:37.288Z,96732.27
2019-05-06T12:20:08.492Z,96730.89
2019-05-06T12:22:38.992Z,96737.31
2019-05-06T12:25:12.673Z,96730.50
2019-05-06T12:27:45.494Z,96731.29
2019-05-06T12:30:23.289Z,96731.92
2019-05-06T12:33:13.011Z,96727.97
2019-05-06T12:35:47.406Z,96731.36
2019-05-06T12:38:30.698Z,96730.61
2019-05-06T12:40:59.991Z,96728.77
2019-05-06T12:43:43.040Z,96725.51
2019-05-06T12:46:22.553Z,96731.13
2019-05-06T12:48:53.039Z,96728.20
2019-05-06T12:51:23.492Z,96730.05
2019-05-06T12:53:53.830Z,96728.64
2019-05-06T12:56:24.930Z,96730.11
2019-05-06T12:58:55.281Z,96719.74
2019-05-06T13:01:25.679Z,96735.27
2019-05-06T13:03:56.126Z,96739.77
2019-05-06T13:06:26.724Z,96736.66
2019-05-06T13:09:01.847Z,96736.53
2019-05-06T13:11:29.305Z,96730.39
2019-05-06T13:14:01.020Z,96733.13
2019-05-06T13:16:33.497Z,96717.81
2019-05-06T13:19:03.928Z,96728.98
2019-05-06T13:21:34.519Z,96727.52
2019-05-06T13:24:06.231Z,96724.53
2019-05-06T13:26:36.714Z,96730.59
2019-05-06T13:29:16.322Z,96728.84
2019-05-06T13:31:46.768Z,96727.51
2019-05-06T13:34:18.882Z,96718.91
2019-05-06T13:36:49.644Z,96732.45
2019-05-06T13:39:20.133Z,96735.19
2019-05-06T13:41:52.686Z,96745.91
2019-05-06T13:44:23.058Z,96734.63
2019-05-06T13:46:55.114Z,96733.97
2019-05-06T13:49:35.929Z,96737.44
2019-05-06T13:52:08.672Z,96743.33
2019-05-06T13:54:39.052Z,96743.69
2019-05-06T13:57:09.510Z,96745.47
2019-05-06T13:59:39.826Z,96736.02
2019-05-06T14:02:43.626Z,96737.08
2019-05-06T14:05:14.018Z,96745.28
2019-05-06T14:07:44.533Z,96742.89
2019-05-06T14:10:15.388Z,96737.69
2019-05-06T14:12:45.826Z,96731.45
2019-05-06T14:15:17.255Z,96739.01
2019-05-06T14:17:47.721Z,96738.14
2019-05-06T14:20:18.435Z,96736.42
2019-05-06T14:22:48.921Z,96743.02
2019-05-06T14:25:52.686Z,96744.35
2019-05-06T14:28:47.265Z,96744.90
2019-05-06T14:31:36.571Z,96744.65
2019-05-06T14:34:07.003Z,96748.66
2019-05-06T14:36:37.394Z,96750.14
2019-05-06T14:39:14.254Z,96754.17
2019-05-06T14:41:46.731Z,96755.64
2019-05-06T14:44:17.081Z,96759.38
2019-05-06T14:46:59.867Z,96758.77
2019-05-06T14:49:32.366Z,96758.65
2019-05-06T14:52:02.840Z,96761.10
2019-05-06T14:54:35.144Z,96764.91
2019-05-06T14:57:12.774Z,96766.52
2019-05-06T14:59:43.216Z,96759.44
2019-05-06T15:02:13.629Z,96754.52
2019-05-06T15:04:44.089Z,96758.78
2019-05-06T15:07:14.504Z,96758.61
2019-05-06T15:09:58.087Z,96758.11
2019-05-06T15:12:16.936Z,96762.70
2019-05-06T15:14:47.398Z,96762.73
2019-05-06T15:17:17.930Z,96760.89
2019-05-06T15:19:48.386Z,96763.02
2019-05-06T15:22:18.965Z,96759.14
2019-05-06T15:24:49.353Z,96763.45
2019-05-06T15:27:19.784Z,96765.05
2019-05-06T15:29:53.286Z,96761.77
2019-05-06T15:32:28.386Z,96761.41
2019-05-06T15:35:05.898Z,96760.77
2019-05-06T15:37:42.990Z,96761.95
2019-05-06T15:40:13.648Z,96766.27
2019-05-06T15:42:44.043Z,96765.24
2019-05-06T15:45:14.717Z,96756.81
2019-05-06T15:47:45.655Z,96758.45
2019-05-06T15:50:16.312Z,96754.09
2019-05-06T15:52:46.723Z,96761.48
2019-05-06T15:55:17.178Z,96755.39
2019-05-06T15:57:47.614Z,96753.59
2019-05-06T16:00:22.561Z,96748.83
2019-05-06T16:02:53.310Z,96752.31
2019-05-06T16:05:26.309Z,96755.16
2019-05-06T16:07:56.069Z,96762.04
2019-05-06T16:10:26.505Z,96760.95
2019-05-06T16:12:56.963Z,96759.48
2019-05-06T16:15:27.331Z,96759.50
2019-05-06T16:17:57.688Z,96763.11
2019-05-06T16:20:28.196Z,96765.64
2019-05-06T16:23:14.084Z,96760.14
2019-05-06T16:25:44.869Z,96761.22
2019-05-06T16:28:15.396Z,96766.93
2019-05-06T16:30:45.836Z,96764.08
2019-05-06T16:33:18.840Z,96759.31
2019-05-06T16:35:48.384Z,96764.84
2019-05-06T16:38:18.895Z,96760.88
2019-05-06T16:40:49.327Z,96762.47
2019-05-06T16:43:21.987Z,96767.78
2019-05-06T16:45:53.197Z,96764.13
2019-05-06T16:48:24.164Z,96770.24
2019-05-06T16:50:54.570Z,96774.75
2019-05-06T16:53:24.937Z,96774.92
2019-05-06T16:56:07.035Z,96776.23
2019-05-06T16:58:40.148Z,96768.89
2019-05-06T17:01:14.894Z,96772.33
2019-05-06T17:04:20.162Z,96778.44
2019-05-06T17:06:52.406Z,96771.14
2019-05-06T17:09:27.081Z,96780.03
2019-05-06T17:11:55.199Z,96776.80
2019-05-06T17:14:25.666Z,96778.77
2019-05-06T17:16:56.266Z,96784.69
2019-05-06T17:19:26.721Z,96783.02
2019-05-06T17:21:57.157Z,96780.11
2019-05-06T17:24:27.561Z,96786.69
2019-05-06T17:26:58.572Z,96788.98
2019-05-06T17:29:46.341Z,96789.34
2019-05-06T17:32:44.821Z,96792.66
2019-05-06T17:35:17.572Z,96794.02
2019-05-06T17:38:04.442Z,96795.62
2019-05-06T17:40:34.909Z,96798.55
2019-05-06T17:43:05.337Z,96796.91
2019-05-06T17:46:02.365Z,96803.06
2019-05-06T17:48:42.455Z,96797.20
2019-05-06T17:51:14.742Z,96801.46
2019-05-06T17:53:48.462Z,96799.69
2019-05-06T17:56:18.878Z,96809.08
2019-05-06T17:58:49.332Z,96805.34
2019-05-06T18:01:23.626Z,96804.90
2019-05-06T18:03:54.152Z,96804.90
2019-05-06T18:06:24.693Z,96808.48
2019-05-06T18:08:54.988Z,96812.96
2019-05-06T18:11:25.438Z,96814.61
2019-05-06T18:13:55.796Z,96807.28
2019-05-06T18:16:26.269Z,96814.99
2019-05-06T18:18:56.630Z,96820.06
2019-05-06T18:21:27.159Z,96812.88
2019-05-06T18:23:57.478Z,96816.66
2019-05-06T18:26:29.906Z,96816.26
2019-05-06T18:29:00.376Z,96830.77
2019-05-06T18:31:32.886Z,96830.41
2019-05-06T18:34:06.141Z,96824.55
2019-05-06T18:36:35.156Z,96833.36
2019-05-06T18:39:07.353Z,96835.00
2019-05-06T18:41:38.005Z,96842.83
2019-05-06T18:44:08.370Z,96838.91
2019-05-06T18:46:39.035Z,96842.83
2019-05-06T18:49:09.451Z,96847.72
2019-05-06T18:51:39.818Z,96849.92
2019-05-06T18:54:12.378Z,96858.38
2019-05-06T18:56:43.121Z,96858.33
2019-05-06T18:59:13.646Z,96860.60
2019-05-06T19:01:44.065Z,96862.81
2019-05-06T19:04:29.237Z,96861.75
2019-05-06T19:07:12.322Z,96865.34
2019-05-06T19:09:49.456Z,96864.62
2019-05-06T19:12:29.279Z,96872.44
2019-05-06T19:14:52.536Z,96883.34
2019-05-06T19:17:23.455Z,96877.64
2019-05-06T19:19:53.951Z,96884.79
2019-05-06T19:22:24.364Z,96887.67
2019-05-06T19:24:54.802Z,96885.67
2019-05-06T19:27:25.230Z,96896.44
2019-05-06T19:29:55.587Z,96894.45
2019-05-06T19:32:27.982Z,96893.83
2019-05-06T19:34:58.443Z,96900.03
2019-05-06T19:37:28.789Z,96906.72
2019-05-06T19:39:59.150Z,96902.59
2019-05-06T19:42:42.211Z,96904.98
2019-05-06T19:45:02.540Z,96902.52
2019-05-06T19:47:34.172Z,96905.41
2019-05-06T19:50:04.794Z,96910.54
2019-05-06T19:52:35.248Z,96910.70
2019-05-06T19:55:06.368Z,96910.78
2019-05-06T19:57:36.815Z,96908.89
2019-05-06T20:00:07.527Z,96916.77
2019-05-06T20:02:37.942Z,96917.18
2019-05-06T20:05:15.735Z,96915.05
2019-05-06T20:08:04.152Z,96911.98
2019-05-06T20:10:52.899Z,96914.78
2019-05-06T20:13:23.371Z,96916.52
2019-05-06T20:15:53.964Z,96914.91
2019-05-06T20:18:24.462Z,96917.18
2019-05-06T20:20:54.750Z,96920.13
2019-05-06T20:23:25.205Z,96921.43
2019-05-06T20:25:55.520Z,96918.82
2019-05-06T20:28:26.019Z,96925.30
2019-05-06T20:30:56.450Z,96915.83
2019-05-06T20:33:26.860Z,96907.58
2019-05-06T20:35:57.290Z,96914.78
2019-05-06T20:38:27.856Z,96918.81
2019-05-06T20:40:58.277Z,96916.80
2019-05-06T20:43:28.613Z,96913.29
2019-05-06T20:45:58.984Z,96910.32
2019-05-06T20:48:29.408Z,96907.02
2019-05-06T20:50:59.870Z,96905.09
2019-05-06T20:53:32.453Z,96902.32
2019-05-06T20:56:02.866Z,96903.20
2019-05-06T20:58:33.312Z,96905.66
2019-05-06T21:01:03.699Z,96902.73
2019-05-06T21:03:34.083Z,96905.55
2019-05-06T21:06:04.565Z,96902.20
2019-05-06T21:08:34.914Z,96903.12
2019-05-06T21:11:05.292Z,96897.29
2019-05-06T21:13:35.763Z,96902.22
2019-05-06T21:16:06.192Z,96897.75
2019-05-06T21:18:36.637Z,96900.31
2019-05-06T21:21:06.982Z,96901.81
2019-05-06T21:23:37.377Z,96908.02
2019-05-06T21:26:07.842Z,96903.60
2019-05-06T21:28:38.255Z,96905.28
2019-05-06T21:31:08.738Z,96901.44
2019-05-06T21:33:39.124Z,96902.64
2019-05-06T21:36:09.598Z,96899.86
2019-05-06T21:38:40.065Z,96892.56
2019-05-06T21:41:12.393Z,96898.63
2019-05-06T21:43:49.077Z,96894.78
2019-05-06T21:46:14.924Z,96902.28
2019-05-06T21:48:45.332Z,96894.19
2019-05-06T21:51:15.723Z,96889.27
2019-05-06T21:53:46.131Z,96889.62
2019-05-06T21:56:16.645Z,96888.28
2019-05-06T21:58:46.995Z,96890.58
2019-05-06T22:01:17.469Z,96891.41
2019-05-06T22:03:50.670Z,96887.19
2019-05-06T22:06:22.488Z,96892.98
2019-05-06T22:08:53.077Z,96890.52
2019-05-06T22:11:24.530Z,96886.69
2019-05-06T22:14:01.147Z,96887.92
2019-05-06T22:16:27.040Z,96890.28
2019-05-06T22:18:57.575Z,96886.14
2019-05-06T22:21:28.025Z,96884.25
2019-05-06T22:23:59.536Z,96881.61
2019-05-06T22:26:32.440Z,96871.75
2019-05-06T22:29:03.109Z,96869.77
2019-05-06T22:31:33.571Z,96869.08
2019-05-06T22:34:03.994Z,96871.58
2019-05-06T22:36:34.451Z,96867.98
2019-05-06T22:39:06.531Z,96858.83
2019-05-06T22:41:36.947Z,96860.70
2019-05-06T22:44:13.656Z,96861.25
2019-05-06T22:46:39.464Z,96857.61
2019-05-06T22:49:09.887Z,96861.96
2019-05-06T22:51:42.483Z,96858.55
2019-05-06T22:54:12.458Z,96860.50
2019-05-06T22:56:42.901Z,96862.02
2019-05-06T22:59:13.330Z,96856.42
2019-05-06T23:01:59.655Z,96856.55
2019-05-06T23:04:32.419Z,96850.36
2019-05-06T23:07:04.807Z,96856.11
2019-05-06T23:09:35.116Z,96855.77
2019-05-06T23:12:05.714Z,96850.38
2019-05-06T23:14:37.351Z,96849.09
2019-05-06T23:17:07.825Z,96847.59
2019-05-06T23:19:38.217Z,96851.69
2019-05-06T23:22:08.544Z,96856.53
2019-05-06T23:24:38.967Z,96852.62
2019-05-06T23:27:09.241Z,96858.82
2019-05-06T23:29:39.595Z,96848.77
2019-05-06T23:32:13.786Z,96855.37
2019-05-06T23:34:43.261Z,96850.30
2019-05-06T23:37:22.926Z,96857.85
2019-05-06T23:40:46.946Z,96849.83
2019-05-06T23:44:12.535Z,96847.23
2019-05-06T23:47:37.454Z,96845.87
2019-05-06T23:51:01.835Z,96841.39
2019-05-06T23:54:26.580Z,96841.98
2019-05-06T23:56:54.700Z,96840.52
2019-05-06T23:59:25.148Z,96833.09
